Jo Redwood — LAPN7 — position and weather

sailwx.info

Track history (hours):
 
Tides and Currents Weather Stations Pressure Air Temp Water Temp Dewpoint Dewpoint Depression Visibility Wind Speed Wind Dir Waves Ship Positions

Jo Redwood

Last reported at 2017-Nov-17 08:47 UTC. Time now 2017-Dec-14 04:08 UTC.
Position N 30°20' E 032°23'.
Warning: this ship's position is 26 days out of date.

Length 229 m; draft 12.9 m.

Type: Ship (hazmat cat D). MMSI: 257932000.

Date/timePositionNaut miles runAvg speedWind from/ knotsBaromVisibWave heightAir tempDewpointWater temp
2017-Nov-17 08:47N 30°20' E 032°23'0 0.0
2017-Nov-17 07:03N 30°20' E 032°23'0 0.1
2017-Nov-17 07:00N 30°20' E 032°23'0 0.0
2017-Nov-17 06:30N 30°20' E 032°23'0 0.1
2017-Nov-17 06:00N 30°20' E 032°23'0 0.2
2017-Nov-17 05:27N 30°20' E 032°23'0 0.1
2017-Nov-17 05:00N 30°20' E 032°23'1 1.7
2017-Nov-17 04:31N 30°21' E 032°23'11 9.0
2017-Nov-17 03:14N 30°32' E 032°19'20 8.0
2017-Nov-17 00:42N 30°52' E 032°19'31 8.9
2017-Nov-16 21:16N 31°23' E 032°23'5 3.0
2017-Nov-16 19:28N 31°25' E 032°18'2 4.9
2017-Nov-16 19:00N 31°27' E 032°18'8 8.8
2017-Nov-16 18:08N 31°32' E 032°12'213.6
2017-Nov-16 18:00N 31°34' E 032°10'  
2017-Nov-14 01:14N 36°19' E 014°44'314.8
2017-Nov-14 01:00N 36°20' E 014°40'714.7
2017-Nov-14 00:30N 36°22' E 014°31'714.8
2017-Nov-14 00:00N 36°24' E 014°22'714.7
2017-Nov-13 23:30N 36°26' E 014°14'714.7
2017-Nov-13 23:00N 36°29' E 014°05'  
2017-Nov-11 06:49N 35°59' W 005°13'515.9
2017-Nov-11 06:31N 35°58' W 005°19'815.8
2017-Nov-11 06:01N 35°57' W 005°28'28511.7
2017-Nov-10 05:45N 38°31' W 010°29'3314.1
2017-Nov-10 03:26N 39°04' W 010°30'  
2017-Nov-07 21:03N 49°44' W 003°33'110.9
2017-Nov-07 20:56N 49°45' W 003°31'510.6
2017-Nov-07 20:30N 49°47' W 003°25'610.5
2017-Nov-07 19:57N 49°50' W 003°17'510.7
2017-Nov-07 19:30N 49°52' W 003°11'611.3
2017-Nov-07 18:56N 49°55' W 003°02'512.0
2017-Nov-07 18:30N 49°58' W 002°55'712.7
2017-Nov-07 17:59N 49°60' W 002°45'713.6
2017-Nov-07 17:27N 50°02' W 002°34'1815.3
2017-Nov-07 16:19N 50°06' W 002°08'516.3
2017-Nov-07 16:00N 50°08' W 002°00'816.0
2017-Nov-07 15:30N 50°10' W 001°48'815.6
2017-Nov-07 15:00N 50°12' W 001°37'815.1
2017-Nov-07 14:31N 50°14' W 001°25'714.3
2017-Nov-07 14:00N 50°16' W 001°14'3511.0
2017-Nov-07 10:49N 50°25' W 000°21'5 9.6
2017-Nov-07 10:17N 50°26' W 000°14'3 9.7
2017-Nov-07 10:00N 50°27' W 000°10'5 9.9
2017-Nov-07 09:30N 50°28' W 000°02'510.2
2017-Nov-07 09:00N 50°30' E 000°06'  
Track history (hours):
 
Tides and Currents Weather Stations Pressure Air Temp Water Temp Dewpoint Dewpoint Depression Visibility Wind Speed Wind Dir Waves Ship Positions

Jo Redwood

Last reported at 2017-Nov-17 08:47 UTC. Time now 2017-Dec-14 04:08 UTC.
Position N 30°20' E 032°23'.
Warning: this ship's position is 26 days out of date.

Length 229 m; draft 12.9 m.

Type: Ship (hazmat cat D). MMSI: 257932000.

Date/timePositionNaut miles runAvg speedWind from/ knotsBaromVisibWave heightAir tempDewpointWater temp
2017-Nov-17 08:47N 30°20' E 032°23'0 0.0
2017-Nov-17 07:03N 30°20' E 032°23'0 0.1
2017-Nov-17 07:00N 30°20' E 032°23'0 0.0
2017-Nov-17 06:30N 30°20' E 032°23'0 0.1
2017-Nov-17 06:00N 30°20' E 032°23'0 0.2
2017-Nov-17 05:27N 30°20' E 032°23'0 0.1
2017-Nov-17 05:00N 30°20' E 032°23'1 1.7
2017-Nov-17 04:31N 30°21' E 032°23'11 9.0
2017-Nov-17 03:14N 30°32' E 032°19'20 8.0
2017-Nov-17 00:42N 30°52' E 032°19'31 8.9
2017-Nov-16 21:16N 31°23' E 032°23'5 3.0
2017-Nov-16 19:28N 31°25' E 032°18'2 4.9
2017-Nov-16 19:00N 31°27' E 032°18'8 8.8
2017-Nov-16 18:08N 31°32' E 032°12'213.6
2017-Nov-16 18:00N 31°34' E 032°10'  
2017-Nov-14 01:14N 36°19' E 014°44'314.8
2017-Nov-14 01:00N 36°20' E 014°40'714.7
2017-Nov-14 00:30N 36°22' E 014°31'714.8
2017-Nov-14 00:00N 36°24' E 014°22'714.7
2017-Nov-13 23:30N 36°26' E 014°14'714.7
2017-Nov-13 23:00N 36°29' E 014°05'  
2017-Nov-11 06:49N 35°59' W 005°13'515.9
2017-Nov-11 06:31N 35°58' W 005°19'815.8
2017-Nov-11 06:01N 35°57' W 005°28'28511.7
2017-Nov-10 05:45N 38°31' W 010°29'3314.1
2017-Nov-10 03:26N 39°04' W 010°30'  
2017-Nov-07 21:03N 49°44' W 003°33'110.9
2017-Nov-07 20:56N 49°45' W 003°31'510.6
2017-Nov-07 20:30N 49°47' W 003°25'610.5
2017-Nov-07 19:57N 49°50' W 003°17'510.7
2017-Nov-07 19:30N 49°52' W 003°11'611.3
2017-Nov-07 18:56N 49°55' W 003°02'512.0
2017-Nov-07 18:30N 49°58' W 002°55'712.7
2017-Nov-07 17:59N 49°60' W 002°45'713.6
2017-Nov-07 17:27N 50°02' W 002°34'1815.3
2017-Nov-07 16:19N 50°06' W 002°08'516.3
2017-Nov-07 16:00N 50°08' W 002°00'816.0
2017-Nov-07 15:30N 50°10' W 001°48'815.6
2017-Nov-07 15:00N 50°12' W 001°37'815.1
2017-Nov-07 14:31N 50°14' W 001°25'714.3
2017-Nov-07 14:00N 50°16' W 001°14'3511.0
2017-Nov-07 10:49N 50°25' W 000°21'5 9.6
2017-Nov-07 10:17N 50°26' W 000°14'3 9.7
2017-Nov-07 10:00N 50°27' W 000°10'5 9.9
2017-Nov-07 09:30N 50°28' W 000°02'510.2
2017-Nov-07 09:00N 50°30' E 000°06'  

Dump ship's entire track history